sensor_id;sensor_type;location;lat;lon;timestamp;P1;durP1;ratioP1;P2;durP2;ratioP2
9422;SDS011;65863;49.506;10.400;2024-01-07T00:01:08;11.07;;;9.03;;
9422;SDS011;65863;49.506;10.400;2024-01-07T00:03:52;10.53;;;8.40;;
9422;SDS011;65863;49.506;10.400;2024-01-07T00:06:37;12.13;;;9.00;;
9422;SDS011;65863;49.506;10.400;2024-01-07T00:09:30;16.20;;;8.93;;
9422;SDS011;65863;49.506;10.400;2024-01-07T00:12:14;12.47;;;9.60;;
9422;SDS011;65863;49.506;10.400;2024-01-07T00:14:58;12.07;;;9.37;;
9422;SDS011;65863;49.506;10.400;2024-01-07T00:17:42;16.43;;;10.50;;
9422;SDS011;65863;49.506;10.400;2024-01-07T00:20:27;14.60;;;10.47;;
9422;SDS011;65863;49.506;10.400;2024-01-07T00:23:11;12.80;;;10.40;;
9422;SDS011;65863;49.506;10.400;2024-01-07T00:25:55;13.57;;;10.80;;
9422;SDS011;65863;49.506;10.400;2024-01-07T00:28:39;14.47;;;11.77;;
9422;SDS011;65863;49.506;10.400;2024-01-07T00:31:23;12.87;;;10.33;;
9422;SDS011;65863;49.506;10.400;2024-01-07T00:34:07;12.83;;;10.03;;
9422;SDS011;65863;49.506;10.400;2024-01-07T00:36:51;13.20;;;10.80;;
9422;SDS011;65863;49.506;10.400;2024-01-07T00:39:35;13.00;;;10.50;;
9422;SDS011;65863;49.506;10.400;2024-01-07T00:42:20;12.67;;;9.13;;
9422;SDS011;65863;49.506;10.400;2024-01-07T00:45:05;11.57;;;8.90;;
9422;SDS011;65863;49.506;10.400;2024-01-07T00:47:49;11.07;;;8.97;;
9422;SDS011;65863;49.506;10.400;2024-01-07T00:50:33;12.30;;;8.60;;
9422;SDS011;65863;49.506;10.400;2024-01-07T00:53:17;11.17;;;9.27;;
9422;SDS011;65863;49.506;10.400;2024-01-07T00:56:02;9.47;;;8.40;;
9422;SDS011;65863;49.506;10.400;2024-01-07T00:58:49;12.53;;;9.00;;
9422;SDS011;65863;49.506;10.400;2024-01-07T01:01:33;12.23;;;8.20;;
9422;SDS011;65863;49.506;10.400;2024-01-07T01:04:17;11.93;;;8.20;;
9422;SDS011;65863;49.506;10.400;2024-01-07T01:07:01;10.73;;;8.50;;
9422;SDS011;65863;49.506;10.400;2024-01-07T01:09:45;12.67;;;8.90;;
9422;SDS011;65863;49.506;10.400;2024-01-07T01:12:30;12.40;;;8.53;;
9422;SDS011;65863;49.506;10.400;2024-01-07T01:15:13;14.73;;;9.27;;
9422;SDS011;65863;49.506;10.400;2024-01-07T01:18:00;13.70;;;9.20;;
9422;SDS011;65863;49.506;10.400;2024-01-07T01:20:44;11.27;;;8.67;;
9422;SDS011;65863;49.506;10.400;2024-01-07T01:23:28;15.20;;;9.73;;
9422;SDS011;65863;49.506;10.400;2024-01-07T01:26:12;13.00;;;9.67;;
9422;SDS011;65863;49.506;10.400;2024-01-07T01:28:56;10.43;;;8.33;;
9422;SDS011;65863;49.506;10.400;2024-01-07T01:31:40;12.33;;;9.20;;
9422;SDS011;65863;49.506;10.400;2024-01-07T01:34:24;13.47;;;9.40;;
9422;SDS011;65863;49.506;10.400;2024-01-07T01:37:09;17.53;;;9.93;;
9422;SDS011;65863;49.506;10.400;2024-01-07T01:39:53;17.83;;;10.03;;
9422;SDS011;65863;49.506;10.400;2024-01-07T01:42:37;13.27;;;9.80;;
9422;SDS011;65863;49.506;10.400;2024-01-07T01:45:21;15.13;;;9.60;;
9422;SDS011;65863;49.506;10.400;2024-01-07T01:48:05;11.13;;;9.07;;
9422;SDS011;65863;49.506;10.400;2024-01-07T01:50:49;13.80;;;9.20;;
9422;SDS011;65863;49.506;10.400;2024-01-07T01:53:34;13.07;;;9.50;;
9422;SDS011;65863;49.506;10.400;2024-01-07T01:56:18;15.17;;;9.60;;
9422;SDS011;65863;49.506;10.400;2024-01-07T01:59:04;13.33;;;9.47;;
9422;SDS011;65863;49.506;10.400;2024-01-07T02:01:48;15.33;;;9.53;;
9422;SDS011;65863;49.506;10.400;2024-01-07T02:04:32;12.93;;;9.10;;
9422;SDS011;65863;49.506;10.400;2024-01-07T02:07:16;13.30;;;9.43;;
9422;SDS011;65863;49.506;10.400;2024-01-07T02:10:00;12.93;;;9.23;;
9422;SDS011;65863;49.506;10.400;2024-01-07T02:12:44;15.40;;;10.10;;
9422;SDS011;65863;49.506;10.400;2024-01-07T02:15:29;13.47;;;9.37;;
9422;SDS011;65863;49.506;10.400;2024-01-07T02:18:14;12.70;;;9.57;;
9422;SDS011;65863;49.506;10.400;2024-01-07T02:20:58;12.17;;;9.67;;
9422;SDS011;65863;49.506;10.400;2024-01-07T02:23:42;12.43;;;9.37;;
9422;SDS011;65863;49.506;10.400;2024-01-07T02:26:26;12.97;;;9.13;;
9422;SDS011;65863;49.506;10.400;2024-01-07T02:29:10;17.67;;;9.60;;
9422;SDS011;65863;49.506;10.400;2024-01-07T02:31:54;11.83;;;9.17;;
9422;SDS011;65863;49.506;10.400;2024-01-07T02:34:38;13.77;;;9.87;;
9422;SDS011;65863;49.506;10.400;2024-01-07T02:37:22;11.87;;;9.43;;
9422;SDS011;65863;49.506;10.400;2024-01-07T02:40:06;12.83;;;9.37;;
9422;SDS011;65863;49.506;10.400;2024-01-07T02:42:50;11.47;;;9.27;;
9422;SDS011;65863;49.506;10.400;2024-01-07T02:45:34;12.33;;;9.37;;
9422;SDS011;65863;49.506;10.400;2024-01-07T02:48:19;12.37;;;9.57;;
9422;SDS011;65863;49.506;10.400;2024-01-07T02:51:03;11.33;;;8.67;;
9422;SDS011;65863;49.506;10.400;2024-01-07T02:53:49;12.23;;;9.33;;
9422;SDS011;65863;49.506;10.400;2024-01-07T02:56:33;9.97;;;8.43;;
9422;SDS011;65863;49.506;10.400;2024-01-07T02:59:17;11.53;;;9.00;;
9422;SDS011;65863;49.506;10.400;2024-01-07T03:02:01;10.70;;;8.23;;
9422;SDS011;65863;49.506;10.400;2024-01-07T03:04:45;12.37;;;9.93;;
9422;SDS011;65863;49.506;10.400;2024-01-07T03:07:29;12.70;;;8.50;;
9422;SDS011;65863;49.506;10.400;2024-01-07T03:10:14;10.13;;;8.40;;
9422;SDS011;65863;49.506;10.400;2024-01-07T03:12:57;10.60;;;7.77;;
9422;SDS011;65863;49.506;10.400;2024-01-07T03:15:42;9.60;;;7.00;;
9422;SDS011;65863;49.506;10.400;2024-01-07T03:18:26;12.20;;;7.87;;
9422;SDS011;65863;49.506;10.400;2024-01-07T03:21:18;7.63;;;6.67;;
9422;SDS011;65863;49.506;10.400;2024-01-07T03:24:03;8.53;;;6.83;;
9422;SDS011;65863;49.506;10.400;2024-01-07T03:26:48;10.57;;;7.70;;
9422;SDS011;65863;49.506;10.400;2024-01-07T03:29:32;7.70;;;6.90;;
9422;SDS011;65863;49.506;10.400;2024-01-07T03:32:16;8.43;;;6.83;;
9422;SDS011;65863;49.506;10.400;2024-01-07T03:35:02;8.70;;;6.63;;
9422;SDS011;65863;49.506;10.400;2024-01-07T03:37:46;9.17;;;6.50;;
9422;SDS011;65863;49.506;10.400;2024-01-07T03:40:30;10.10;;;6.90;;
9422;SDS011;65863;49.506;10.400;2024-01-07T03:43:23;11.03;;;6.17;;
9422;SDS011;65863;49.506;10.400;2024-01-07T03:46:07;7.73;;;6.30;;
9422;SDS011;65863;49.506;10.400;2024-01-07T03:48:51;7.53;;;6.13;;
9422;SDS011;65863;49.506;10.400;2024-01-07T03:51:35;7.00;;;5.90;;
9422;SDS011;65863;49.506;10.400;2024-01-07T03:54:19;8.23;;;6.33;;
9422;SDS011;65863;49.506;10.400;2024-01-07T03:57:03;8.30;;;5.70;;
9422;SDS011;65863;49.506;10.400;2024-01-07T03:59:47;6.97;;;5.80;;
9422;SDS011;65863;49.506;10.400;2024-01-07T04:02:32;7.37;;;5.63;;
9422;SDS011;65863;49.506;10.400;2024-01-07T04:05:16;7.47;;;6.00;;
9422;SDS011;65863;49.506;10.400;2024-01-07T04:08:00;8.23;;;6.40;;
9422;SDS011;65863;49.506;10.400;2024-01-07T04:10:45;8.60;;;6.37;;
9422;SDS011;65863;49.506;10.400;2024-01-07T04:13:29;8.27;;;6.33;;
9422;SDS011;65863;49.506;10.400;2024-01-07T04:16:17;7.47;;;6.27;;
9422;SDS011;65863;49.506;10.400;2024-01-07T04:19:02;6.83;;;5.87;;
9422;SDS011;65863;49.506;10.400;2024-01-07T04:21:46;8.57;;;6.53;;
9422;SDS011;65863;49.506;10.400;2024-01-07T04:24:33;9.73;;;7.00;;
9422;SDS011;65863;49.506;10.400;2024-01-07T04:27:17;9.10;;;6.67;;
9422;SDS011;65863;49.506;10.400;2024-01-07T04:30:01;7.43;;;6.17;;
9422;SDS011;65863;49.506;10.400;2024-01-07T04:32:46;8.10;;;6.20;;
9422;SDS011;65863;49.506;10.400;2024-01-07T04:35:30;8.67;;;6.80;;
9422;SDS011;65863;49.506;10.400;2024-01-07T04:38:14;8.77;;;6.40;;
9422;SDS011;65863;49.506;10.400;2024-01-07T04:40:58;10.00;;;7.00;;
9422;SDS011;65863;49.506;10.400;2024-01-07T04:43:42;8.93;;;6.43;;
9422;SDS011;65863;49.506;10.400;2024-01-07T04:46:27;9.60;;;6.97;;
9422;SDS011;65863;49.506;10.400;2024-01-07T04:49:11;8.80;;;5.93;;
9422;SDS011;65863;49.506;10.400;2024-01-07T04:51:55;9.17;;;6.53;;
9422;SDS011;65863;49.506;10.400;2024-01-07T04:54:39;8.80;;;6.50;;
9422;SDS011;65863;49.506;10.400;2024-01-07T04:57:24;9.80;;;6.83;;
9422;SDS011;65863;49.506;10.400;2024-01-07T05:00:08;12.13;;;6.63;;
9422;SDS011;65863;49.506;10.400;2024-01-07T05:02:52;7.53;;;6.27;;
9422;SDS011;65863;49.506;10.400;2024-01-07T05:05:36;8.97;;;6.50;;
9422;SDS011;65863;49.506;10.400;2024-01-07T05:08:22;15.63;;;6.73;;
9422;SDS011;65863;49.506;10.400;2024-01-07T05:11:06;8.60;;;6.33;;
9422;SDS011;65863;49.506;10.400;2024-01-07T05:13:51;10.17;;;7.40;;
9422;SDS011;65863;49.506;10.400;2024-01-07T05:16:35;9.53;;;6.27;;
9422;SDS011;65863;49.506;10.400;2024-01-07T05:19:19;8.43;;;6.30;;
9422;SDS011;65863;49.506;10.400;2024-01-07T05:22:03;9.10;;;6.70;;
9422;SDS011;65863;49.506;10.400;2024-01-07T05:24:47;9.40;;;6.63;;
9422;SDS011;65863;49.506;10.400;2024-01-07T05:27:31;7.53;;;6.03;;
9422;SDS011;65863;49.506;10.400;2024-01-07T05:30:16;9.73;;;7.47;;
9422;SDS011;65863;49.506;10.400;2024-01-07T05:33:00;8.17;;;6.53;;
9422;SDS011;65863;49.506;10.400;2024-01-07T05:35:44;8.30;;;6.60;;
9422;SDS011;65863;49.506;10.400;2024-01-07T05:38:28;8.77;;;6.20;;
9422;SDS011;65863;49.506;10.400;2024-01-07T05:41:12;8.53;;;6.57;;
9422;SDS011;65863;49.506;10.400;2024-01-07T05:43:56;7.73;;;5.90;;
9422;SDS011;65863;49.506;10.400;2024-01-07T05:46:40;7.73;;;6.13;;
9422;SDS011;65863;49.506;10.400;2024-01-07T05:49:24;7.67;;;5.87;;
9422;SDS011;65863;49.506;10.400;2024-01-07T05:52:08;10.13;;;6.20;;
9422;SDS011;65863;49.506;10.400;2024-01-07T05:55:38;8.67;;;6.03;;
9422;SDS011;65863;49.506;10.400;2024-01-07T05:58:15;7.87;;;5.70;;
9422;SDS011;65863;49.506;10.400;2024-01-07T06:00:59;8.77;;;6.33;;
9422;SDS011;65863;49.506;10.400;2024-01-07T06:03:44;7.23;;;6.07;;
9422;SDS011;65863;49.506;10.400;2024-01-07T06:06:28;8.63;;;6.33;;
9422;SDS011;65863;49.506;10.400;2024-01-07T06:09:58;9.13;;;6.30;;
9422;SDS011;65863;49.506;10.400;2024-01-07T06:12:34;8.77;;;5.70;;
9422;SDS011;65863;49.506;10.400;2024-01-07T06:15:18;8.03;;;5.87;;
9422;SDS011;65863;49.506;10.400;2024-01-07T06:18:02;7.37;;;5.83;;
9422;SDS011;65863;49.506;10.400;2024-01-07T06:20:46;7.37;;;5.20;;
9422;SDS011;65863;49.506;10.400;2024-01-07T06:23:32;7.53;;;5.63;;
9422;SDS011;65863;49.506;10.400;2024-01-07T06:26:16;7.17;;;5.87;;
9422;SDS011;65863;49.506;10.400;2024-01-07T06:29:00;7.63;;;6.23;;
9422;SDS011;65863;49.506;10.400;2024-01-07T06:31:44;7.10;;;6.00;;
9422;SDS011;65863;49.506;10.400;2024-01-07T06:34:29;7.20;;;5.57;;
9422;SDS011;65863;49.506;10.400;2024-01-07T06:37:13;7.80;;;5.70;;
9422;SDS011;65863;49.506;10.400;2024-01-07T06:39:57;7.23;;;6.00;;
9422;SDS011;65863;49.506;10.400;2024-01-07T06:42:42;8.30;;;6.27;;
9422;SDS011;65863;49.506;10.400;2024-01-07T06:46:22;7.23;;;5.57;;
9422;SDS011;65863;49.506;10.400;2024-01-07T06:49:06;7.47;;;5.53;;
9422;SDS011;65863;49.506;10.400;2024-01-07T06:51:52;7.30;;;5.73;;
9422;SDS011;65863;49.506;10.400;2024-01-07T06:54:36;8.40;;;5.40;;
9422;SDS011;65863;49.506;10.400;2024-01-07T06:57:20;6.53;;;5.50;;
9422;SDS011;65863;49.506;10.400;2024-01-07T07:00:04;7.27;;;5.80;;
9422;SDS011;65863;49.506;10.400;2024-01-07T07:02:48;8.30;;;6.13;;
9422;SDS011;65863;49.506;10.400;2024-01-07T07:05:33;7.43;;;6.30;;
9422;SDS011;65863;49.506;10.400;2024-01-07T07:08:17;7.73;;;5.90;;
9422;SDS011;65863;49.506;10.400;2024-01-07T07:11:01;8.10;;;6.77;;
9422;SDS011;65863;49.506;10.400;2024-01-07T07:13:54;9.83;;;7.00;;
9422;SDS011;65863;49.506;10.400;2024-01-07T07:16:38;9.63;;;7.07;;
9422;SDS011;65863;49.506;10.400;2024-01-07T07:19:22;8.13;;;6.00;;
9422;SDS011;65863;49.506;10.400;2024-01-07T07:22:44;10.03;;;7.30;;
9422;SDS011;65863;49.506;10.400;2024-01-07T07:26:06;8.13;;;6.80;;
9422;SDS011;65863;49.506;10.400;2024-01-07T07:29:12;9.23;;;7.33;;
9422;SDS011;65863;49.506;10.400;2024-01-07T07:31:56;7.53;;;6.23;;
9422;SDS011;65863;49.506;10.400;2024-01-07T07:34:40;9.67;;;6.83;;
9422;SDS011;65863;49.506;10.400;2024-01-07T07:38:02;9.47;;;6.70;;
9422;SDS011;65863;49.506;10.400;2024-01-07T07:40:46;9.07;;;6.80;;
9422;SDS011;65863;49.506;10.400;2024-01-07T07:44:08;8.10;;;6.43;;
9422;SDS011;65863;49.506;10.400;2024-01-07T07:47:29;7.07;;;5.90;;
9422;SDS011;65863;49.506;10.400;2024-01-07T07:50:13;8.40;;;6.40;;
9422;SDS011;65863;49.506;10.400;2024-01-07T07:52:57;8.10;;;6.30;;
9422;SDS011;65863;49.506;10.400;2024-01-07T07:55:41;8.17;;;6.70;;
9422;SDS011;65863;49.506;10.400;2024-01-07T07:58:25;7.80;;;6.47;;
9422;SDS011;65863;49.506;10.400;2024-01-07T08:01:09;8.73;;;6.60;;
9422;SDS011;65863;49.506;10.400;2024-01-07T08:03:53;7.90;;;6.03;;
9422;SDS011;65863;49.506;10.400;2024-01-07T08:06:37;7.37;;;6.33;;
9422;SDS011;65863;49.506;10.400;2024-01-07T08:09:21;6.97;;;5.80;;
9422;SDS011;65863;49.506;10.400;2024-01-07T08:12:05;7.33;;;6.00;;
9422;SDS011;65863;49.506;10.400;2024-01-07T08:14:49;7.20;;;5.80;;
9422;SDS011;65863;49.506;10.400;2024-01-07T08:17:33;8.80;;;6.03;;
9422;SDS011;65863;49.506;10.400;2024-01-07T08:20:18;8.30;;;5.80;;
9422;SDS011;65863;49.506;10.400;2024-01-07T08:23:03;6.77;;;5.80;;
9422;SDS011;65863;49.506;10.400;2024-01-07T08:25:48;6.90;;;5.63;;
9422;SDS011;65863;49.506;10.400;2024-01-07T08:28:32;6.07;;;5.10;;
9422;SDS011;65863;49.506;10.400;2024-01-07T08:31:16;6.40;;;5.43;;
9422;SDS011;65863;49.506;10.400;2024-01-07T08:34:00;7.10;;;5.77;;
9422;SDS011;65863;49.506;10.400;2024-01-07T08:36:44;6.47;;;5.53;;
9422;SDS011;65863;49.506;10.400;2024-01-07T08:39:28;6.07;;;5.47;;
9422;SDS011;65863;49.506;10.400;2024-01-07T08:42:13;5.83;;;5.23;;
9422;SDS011;65863;49.506;10.400;2024-01-07T08:44:57;6.37;;;5.33;;
9422;SDS011;65863;49.506;10.400;2024-01-07T08:47:44;6.83;;;5.67;;
9422;SDS011;65863;49.506;10.400;2024-01-07T08:50:28;5.90;;;5.23;;
9422;SDS011;65863;49.506;10.400;2024-01-07T08:53:13;5.43;;;4.83;;
9422;SDS011;65863;49.506;10.400;2024-01-07T08:55:58;5.47;;;4.97;;
9422;SDS011;65863;49.506;10.400;2024-01-07T08:58:42;7.33;;;5.13;;
9422;SDS011;65863;49.506;10.400;2024-01-07T09:01:26;6.07;;;4.93;;
9422;SDS011;65863;49.506;10.400;2024-01-07T09:04:10;6.03;;;4.97;;
9422;SDS011;65863;49.506;10.400;2024-01-07T09:06:54;6.37;;;5.03;;
9422;SDS011;65863;49.506;10.400;2024-01-07T09:09:38;6.73;;;5.23;;
9422;SDS011;65863;49.506;10.400;2024-01-07T09:12:22;5.50;;;4.63;;
9422;SDS011;65863;49.506;10.400;2024-01-07T09:15:06;6.37;;;5.03;;
9422;SDS011;65863;49.506;10.400;2024-01-07T09:17:54;5.53;;;5.03;;
9422;SDS011;65863;49.506;10.400;2024-01-07T09:21:16;6.63;;;5.70;;
9422;SDS011;65863;49.506;10.400;2024-01-07T09:24:00;6.00;;;5.40;;
9422;SDS011;65863;49.506;10.400;2024-01-07T09:26:44;5.77;;;5.07;;
9422;SDS011;65863;49.506;10.400;2024-01-07T09:29:28;6.60;;;5.20;;
9422;SDS011;65863;49.506;10.400;2024-01-07T09:32:12;7.60;;;5.50;;
9422;SDS011;65863;49.506;10.400;2024-01-07T09:34:56;6.63;;;5.70;;
9422;SDS011;65863;49.506;10.400;2024-01-07T09:37:41;7.03;;;5.90;;
9422;SDS011;65863;49.506;10.400;2024-01-07T09:40:25;8.00;;;6.13;;
9422;SDS011;65863;49.506;10.400;2024-01-07T09:43:09;9.67;;;6.33;;
9422;SDS011;65863;49.506;10.400;2024-01-07T09:45:53;8.53;;;6.70;;
9422;SDS011;65863;49.506;10.400;2024-01-07T09:48:38;8.20;;;6.57;;
9422;SDS011;65863;49.506;10.400;2024-01-07T09:51:22;8.57;;;6.97;;
9422;SDS011;65863;49.506;10.400;2024-01-07T09:54:07;8.80;;;7.07;;
9422;SDS011;65863;49.506;10.400;2024-01-07T09:56:55;8.07;;;7.27;;
9422;SDS011;65863;49.506;10.400;2024-01-07T09:59:44;10.47;;;7.40;;
9422;SDS011;65863;49.506;10.400;2024-01-07T10:02:30;10.07;;;7.73;;
9422;SDS011;65863;49.506;10.400;2024-01-07T10:05:14;11.43;;;8.50;;
9422;SDS011;65863;49.506;10.400;2024-01-07T10:07:57;10.30;;;7.20;;
9422;SDS011;65863;49.506;10.400;2024-01-07T10:10:41;10.57;;;8.07;;
9422;SDS011;65863;49.506;10.400;2024-01-07T10:13:26;10.00;;;8.27;;
9422;SDS011;65863;49.506;10.400;2024-01-07T10:16:10;10.47;;;8.03;;
9422;SDS011;65863;49.506;10.400;2024-01-07T10:18:54;9.83;;;8.30;;
9422;SDS011;65863;49.506;10.400;2024-01-07T10:21:38;9.90;;;8.00;;
9422;SDS011;65863;49.506;10.400;2024-01-07T10:24:22;13.07;;;8.07;;
9422;SDS011;65863;49.506;10.400;2024-01-07T10:27:07;9.60;;;8.03;;
9422;SDS011;65863;49.506;10.400;2024-01-07T10:29:52;8.47;;;7.17;;
9422;SDS011;65863;49.506;10.400;2024-01-07T10:32:38;10.33;;;7.90;;
9422;SDS011;65863;49.506;10.400;2024-01-07T10:35:32;9.30;;;7.87;;
9422;SDS011;65863;49.506;10.400;2024-01-07T10:38:17;10.23;;;8.10;;
9422;SDS011;65863;49.506;10.400;2024-01-07T10:41:01;10.73;;;8.03;;
9422;SDS011;65863;49.506;10.400;2024-01-07T10:43:49;9.37;;;7.93;;
9422;SDS011;65863;49.506;10.400;2024-01-07T10:46:33;11.43;;;8.47;;
9422;SDS011;65863;49.506;10.400;2024-01-07T10:49:20;10.83;;;7.87;;
9422;SDS011;65863;49.506;10.400;2024-01-07T10:52:06;9.63;;;7.73;;
9422;SDS011;65863;49.506;10.400;2024-01-07T10:55:29;10.63;;;8.13;;
9422;SDS011;65863;49.506;10.400;2024-01-07T10:58:17;12.03;;;8.77;;
9422;SDS011;65863;49.506;10.400;2024-01-07T11:01:03;12.43;;;9.50;;
9422;SDS011;65863;49.506;10.400;2024-01-07T11:04:01;11.27;;;9.03;;
9422;SDS011;65863;49.506;10.400;2024-01-07T11:06:57;10.90;;;8.50;;
9422;SDS011;65863;49.506;10.400;2024-01-07T11:12:44;12.70;;;9.93;;
9422;SDS011;65863;49.506;10.400;2024-01-07T11:18:31;13.37;;;9.57;;
9422;SDS011;65863;49.506;10.400;2024-01-07T11:21:23;12.57;;;9.87;;
9422;SDS011;65863;49.506;10.400;2024-01-07T11:24:09;12.63;;;9.47;;
9422;SDS011;65863;49.506;10.400;2024-01-07T11:26:53;12.27;;;9.50;;
9422;SDS011;65863;49.506;10.400;2024-01-07T11:29:37;12.77;;;8.70;;
9422;SDS011;65863;49.506;10.400;2024-01-07T11:32:23;11.20;;;9.27;;
9422;SDS011;65863;49.506;10.400;2024-01-07T11:35:11;12.43;;;9.87;;
9422;SDS011;65863;49.506;10.400;2024-01-07T11:37:56;12.80;;;9.10;;
9422;SDS011;65863;49.506;10.400;2024-01-07T11:40:40;11.03;;;8.60;;
9422;SDS011;65863;49.506;10.400;2024-01-07T11:43:25;9.20;;;7.40;;
9422;SDS011;65863;49.506;10.400;2024-01-07T11:46:09;9.43;;;7.77;;
9422;SDS011;65863;49.506;10.400;2024-01-07T11:48:53;13.20;;;8.83;;
9422;SDS011;65863;49.506;10.400;2024-01-07T11:51:42;10.10;;;7.80;;
9422;SDS011;65863;49.506;10.400;2024-01-07T11:54:27;11.30;;;8.00;;
9422;SDS011;65863;49.506;10.400;2024-01-07T11:57:11;10.60;;;7.63;;
9422;SDS011;65863;49.506;10.400;2024-01-07T11:59:56;9.57;;;7.53;;
9422;SDS011;65863;49.506;10.400;2024-01-07T12:02:40;11.52;;;8.90;;
9422;SDS011;65863;49.506;10.400;2024-01-07T12:05:25;10.80;;;8.10;;
9422;SDS011;65863;49.506;10.400;2024-01-07T12:08:09;10.80;;;8.20;;
9422;SDS011;65863;49.506;10.400;2024-01-07T12:10:53;10.53;;;8.30;;
9422;SDS011;65863;49.506;10.400;2024-01-07T12:13:38;11.93;;;8.13;;
9422;SDS011;65863;49.506;10.400;2024-01-07T12:17:01;12.40;;;8.20;;
9422;SDS011;65863;49.506;10.400;2024-01-07T12:19:45;9.73;;;7.87;;
9422;SDS011;65863;49.506;10.400;2024-01-07T12:22:30;10.77;;;7.60;;
9422;SDS011;65863;49.506;10.400;2024-01-07T12:25:14;11.13;;;7.77;;
9422;SDS011;65863;49.506;10.400;2024-01-07T12:28:07;9.53;;;7.27;;
9422;SDS011;65863;49.506;10.400;2024-01-07T12:30:51;8.30;;;6.60;;
9422;SDS011;65863;49.506;10.400;2024-01-07T12:33:38;8.93;;;7.00;;
9422;SDS011;65863;49.506;10.400;2024-01-07T12:36:24;9.43;;;7.20;;
9422;SDS011;65863;49.506;10.400;2024-01-07T12:39:09;11.90;;;7.60;;
9422;SDS011;65863;49.506;10.400;2024-01-07T12:41:54;11.80;;;7.33;;
9422;SDS011;65863;49.506;10.400;2024-01-07T12:44:38;8.40;;;6.43;;
9422;SDS011;65863;49.506;10.400;2024-01-07T12:47:22;9.93;;;6.40;;
9422;SDS011;65863;49.506;10.400;2024-01-07T12:50:07;10.07;;;6.80;;
9422;SDS011;65863;49.506;10.400;2024-01-07T12:52:53;7.30;;;5.57;;
9422;SDS011;65863;49.506;10.400;2024-01-07T12:55:37;8.47;;;5.93;;
9422;SDS011;65863;49.506;10.400;2024-01-07T12:58:21;6.93;;;4.97;;
9422;SDS011;65863;49.506;10.400;2024-01-07T13:01:05;7.17;;;4.87;;
9422;SDS011;65863;49.506;10.400;2024-01-07T13:03:49;8.60;;;5.30;;
9422;SDS011;65863;49.506;10.400;2024-01-07T13:06:33;6.43;;;5.10;;
9422;SDS011;65863;49.506;10.400;2024-01-07T13:09:17;6.37;;;5.03;;
9422;SDS011;65863;49.506;10.400;2024-01-07T13:12:01;5.77;;;4.83;;
9422;SDS011;65863;49.506;10.400;2024-01-07T13:14:46;5.47;;;4.53;;
9422;SDS011;65863;49.506;10.400;2024-01-07T13:17:30;6.53;;;4.13;;
9422;SDS011;65863;49.506;10.400;2024-01-07T13:20:16;5.97;;;4.17;;
9422;SDS011;65863;49.506;10.400;2024-01-07T13:23:03;5.30;;;4.30;;
9422;SDS011;65863;49.506;10.400;2024-01-07T13:25:48;5.03;;;3.70;;
9422;SDS011;65863;49.506;10.400;2024-01-07T13:28:32;4.47;;;4.00;;
9422;SDS011;65863;49.506;10.400;2024-01-07T13:31:16;5.83;;;4.10;;
9422;SDS011;65863;49.506;10.400;2024-01-07T13:34:00;5.00;;;4.23;;
9422;SDS011;65863;49.506;10.400;2024-01-07T13:37:29;4.33;;;3.47;;
9422;SDS011;65863;49.506;10.400;2024-01-07T13:40:06;3.97;;;3.43;;
9422;SDS011;65863;49.506;10.400;2024-01-07T13:42:53;4.97;;;3.90;;
9422;SDS011;65863;49.506;10.400;2024-01-07T13:45:37;5.10;;;3.77;;
9422;SDS011;65863;49.506;10.400;2024-01-07T13:48:21;4.50;;;3.47;;
9422;SDS011;65863;49.506;10.400;2024-01-07T13:51:05;9.77;;;5.03;;
9422;SDS011;65863;49.506;10.400;2024-01-07T13:53:50;4.27;;;3.70;;
9422;SDS011;65863;49.506;10.400;2024-01-07T13:56:34;5.43;;;3.63;;
9422;SDS011;65863;49.506;10.400;2024-01-07T13:59:21;6.83;;;4.87;;
9422;SDS011;65863;49.506;10.400;2024-01-07T14:02:07;4.30;;;3.67;;
9422;SDS011;65863;49.506;10.400;2024-01-07T14:04:52;5.13;;;3.77;;
9422;SDS011;65863;49.506;10.400;2024-01-07T14:07:36;5.47;;;3.90;;
9422;SDS011;65863;49.506;10.400;2024-01-07T14:10:20;4.00;;;3.03;;
9422;SDS011;65863;49.506;10.400;2024-01-07T14:13:04;10.90;;;5.10;;
9422;SDS011;65863;49.506;10.400;2024-01-07T14:15:48;4.57;;;3.37;;
9422;SDS011;65863;49.506;10.400;2024-01-07T14:18:32;3.63;;;3.30;;
9422;SDS011;65863;49.506;10.400;2024-01-07T14:21:16;4.73;;;3.50;;
9422;SDS011;65863;49.506;10.400;2024-01-07T14:24:00;3.87;;;2.90;;
9422;SDS011;65863;49.506;10.400;2024-01-07T14:26:44;3.70;;;3.40;;
9422;SDS011;65863;49.506;10.400;2024-01-07T14:29:29;3.53;;;3.10;;
9422;SDS011;65863;49.506;10.400;2024-01-07T14:32:13;3.10;;;2.80;;
9422;SDS011;65863;49.506;10.400;2024-01-07T14:34:57;3.07;;;2.77;;
9422;SDS011;65863;49.506;10.400;2024-01-07T14:37:41;3.80;;;2.87;;
9422;SDS011;65863;49.506;10.400;2024-01-07T14:40:25;3.83;;;3.43;;
9422;SDS011;65863;49.506;10.400;2024-01-07T14:43:10;4.37;;;3.27;;
9422;SDS011;65863;49.506;10.400;2024-01-07T14:45:54;5.17;;;3.53;;
9422;SDS011;65863;49.506;10.400;2024-01-07T14:48:38;3.93;;;3.27;;
9422;SDS011;65863;49.506;10.400;2024-01-07T14:51:22;3.67;;;3.37;;
9422;SDS011;65863;49.506;10.400;2024-01-07T14:54:06;3.70;;;3.30;;
9422;SDS011;65863;49.506;10.400;2024-01-07T14:57:36;4.00;;;3.33;;
9422;SDS011;65863;49.506;10.400;2024-01-07T15:00:08;5.43;;;3.30;;
9422;SDS011;65863;49.506;10.400;2024-01-07T15:02:52;3.90;;;3.20;;
9422;SDS011;65863;49.506;10.400;2024-01-07T15:05:36;4.57;;;3.40;;
9422;SDS011;65863;49.506;10.400;2024-01-07T15:08:20;4.03;;;3.20;;
9422;SDS011;65863;49.506;10.400;2024-01-07T15:11:04;3.53;;;3.23;;
9422;SDS011;65863;49.506;10.400;2024-01-07T15:13:48;4.73;;;3.80;;
9422;SDS011;65863;49.506;10.400;2024-01-07T15:16:35;4.17;;;3.50;;
9422;SDS011;65863;49.506;10.400;2024-01-07T15:19:20;4.77;;;3.43;;
9422;SDS011;65863;49.506;10.400;2024-01-07T15:22:07;3.83;;;3.43;;
9422;SDS011;65863;49.506;10.400;2024-01-07T15:24:51;4.27;;;3.47;;
9422;SDS011;65863;49.506;10.400;2024-01-07T15:27:36;3.80;;;3.07;;
9422;SDS011;65863;49.506;10.400;2024-01-07T15:30:20;4.07;;;3.67;;
9422;SDS011;65863;49.506;10.400;2024-01-07T15:33:04;9.20;;;5.70;;
9422;SDS011;65863;49.506;10.400;2024-01-07T15:35:49;5.27;;;4.23;;
9422;SDS011;65863;49.506;10.400;2024-01-07T15:38:33;4.40;;;3.63;;
9422;SDS011;65863;49.506;10.400;2024-01-07T15:41:38;6.10;;;4.37;;
9422;SDS011;65863;49.506;10.400;2024-01-07T15:44:21;4.77;;;4.03;;
9422;SDS011;65863;49.506;10.400;2024-01-07T15:47:05;4.47;;;4.07;;
9422;SDS011;65863;49.506;10.400;2024-01-07T15:49:49;5.30;;;3.53;;
9422;SDS011;65863;49.506;10.400;2024-01-07T15:52:33;4.67;;;4.17;;
9422;SDS011;65863;49.506;10.400;2024-01-07T15:55:17;4.13;;;3.67;;
9422;SDS011;65863;49.506;10.400;2024-01-07T15:58:01;5.53;;;3.87;;
9422;SDS011;65863;49.506;10.400;2024-01-07T16:00:46;4.53;;;3.50;;
9422;SDS011;65863;49.506;10.400;2024-01-07T16:03:30;5.40;;;3.80;;
9422;SDS011;65863;49.506;10.400;2024-01-07T16:06:15;9.07;;;3.90;;
9422;SDS011;65863;49.506;10.400;2024-01-07T16:08:59;4.33;;;3.67;;
9422;SDS011;65863;49.506;10.400;2024-01-07T16:11:43;4.43;;;3.90;;
9422;SDS011;65863;49.506;10.400;2024-01-07T16:14:29;4.37;;;3.93;;
9422;SDS011;65863;49.506;10.400;2024-01-07T16:17:16;4.47;;;3.90;;
9422;SDS011;65863;49.506;10.400;2024-01-07T16:20:00;5.57;;;4.63;;
9422;SDS011;65863;49.506;10.400;2024-01-07T16:22:44;4.77;;;4.03;;
9422;SDS011;65863;49.506;10.400;2024-01-07T16:25:29;4.67;;;4.17;;
9422;SDS011;65863;49.506;10.400;2024-01-07T16:28:12;4.40;;;4.00;;
9422;SDS011;65863;49.506;10.400;2024-01-07T16:30:57;6.00;;;4.00;;
9422;SDS011;65863;49.506;10.400;2024-01-07T16:33:40;5.20;;;3.97;;
9422;SDS011;65863;49.506;10.400;2024-01-07T16:36:25;4.53;;;3.70;;
9422;SDS011;65863;49.506;10.400;2024-01-07T16:39:11;4.57;;;4.17;;
9422;SDS011;65863;49.506;10.400;2024-01-07T16:41:55;4.93;;;4.17;;